Time;durP1;ratioP1;P1;durP2;ratioP2;P2;SDS_P1;SDS_P2;PMS_P1;PMS_P2;Temp;Humidity;BMP_temperature;BMP_pressure;BME280_temperature;BME280_humidity;BME280_pressure;Samples;Min_cycle;Max_cycle;Signal;HPM_P1;HPM_P2
2023/04/02 00:03:58;;;;;;;2.20;2.10;;;;;;;10.25;54.14;98795.75;10280735;28;20724;-39
2023/04/02 00:09:12;;;;;;;3.10;2.70;;;;;;;10.12;55.13;98859.91;10281180;28;20284;-39
2023/04/02 00:14:21;;;;;;;2.00;1.90;;;;;;;11.84;51.81;98921.41;10280288;28;20243;-38
2023/04/02 00:19:40;;;;;;;2.60;2.40;;;;;;;9.66;55.13;98812.53;10283145;28;20227;-39
2023/04/02 00:24:42;;;;;;;1.90;1.80;;;;;;;10.96;53.16;98936.06;10279178;28;20250;-39
2023/04/02 00:29:49;;;;;;;2.40;2.20;;;;;;;10.59;54.41;98940.19;10292279;28;20710;-39
2023/04/02 00:34:51;;;;;;;2.93;2.20;;;;;;;10.78;52.51;98925.19;10294171;28;20239;-38
2023/04/02 00:40:14;;;;;;;2.60;1.97;;;;;;;10.32;53.89;98903.53;10300507;28;20248;-38
2023/04/02 00:45:24;;;;;;;2.03;1.93;;;;;;;9.29;54.72;98772.78;10281745;28;20763;-39
2023/04/02 00:50:34;;;;;;;3.10;2.50;;;;;;;11.21;51.89;98981.78;10279485;28;20242;-38
2023/04/02 00:55:40;;;;;;;2.47;2.27;;;;;;;10.81;52.29;98957.69;10281816;28;20596;-38
2023/04/02 01:00:49;;;;;;;2.07;1.97;;;;;;;10.48;53.21;98915.69;10280794;28;20319;-38
2023/04/02 01:06:00;;;;;;;4.93;2.60;;;;;;;12.35;50.57;99009.03;10279961;28;20617;-38
2023/04/02 01:11:08;;;;;;;2.43;2.23;;;;;;;12.33;50.30;99010.28;10283356;28;20452;-39
2023/04/02 01:16:38;;;;;;;2.73;2.20;;;;;;;10.83;52.77;98974.41;10282329;28;20226;-39
2023/04/02 01:21:56;;;;;;;2.90;2.30;;;;;;;11.35;51.57;99001.31;10279498;28;20234;-39
2023/04/02 01:27:04;;;;;;;2.40;2.10;;;;;;;11.04;51.42;98978.69;10291492;28;20918;-39
2023/04/02 01:32:10;;;;;;;3.37;2.13;;;;;;;10.70;52.57;98966.34;10283314;28;20226;-39
2023/04/02 01:37:33;;;;;;;1.90;1.80;;;;;;;10.77;52.70;98975.22;10288971;28;20352;-39
2023/04/02 01:42:38;;;;;;;2.33;2.20;;;;;;;10.24;53.27;98930.47;10273959;28;20222;-39
2023/04/02 01:47:41;;;;;;;2.77;2.00;;;;;;;11.08;52.83;99011.22;10287944;28;20233;-39
2023/04/02 01:52:45;;;;;;;1.90;1.80;;;;;;;11.48;51.99;99027.28;10281042;28;20884;-39
2023/04/02 01:57:50;;;;;;;2.07;1.97;;;;;;;10.97;51.53;98964.50;10285709;28;20242;-39
2023/04/02 02:02:52;;;;;;;2.40;2.20;;;;;;;13.86;47.66;99131.91;10283086;28;20234;-38
2023/04/02 02:07:57;;;;;;;1.67;1.63;;;;;;;9.92;52.63;98886.59;10290209;28;20658;-39
2023/04/02 02:13:00;;;;;;;2.17;1.97;;;;;;;12.87;49.05;99059.13;10282840;28;20233;-39
2023/04/02 02:18:05;;;;;;;2.67;2.47;;;;;;;12.58;49.42;99058.69;10285988;28;20246;-39
2023/04/02 02:23:09;;;;;;;2.63;2.10;;;;;;;12.18;50.18;99040.06;10276502;28;20249;-39
2023/04/02 02:28:11;;;;;;;3.30;2.60;;;;;;;11.18;51.00;98997.44;10284933;28;20862;-39
2023/04/02 02:33:40;;;;;;;2.13;1.93;;;;;;;13.28;47.40;99050.56;10283837;28;20661;-39
2023/04/02 02:39:01;;;;;;;2.73;2.27;;;;;;;9.56;53.51;98847.63;10279084;28;20608;-38
2023/04/02 02:44:15;;;;;;;2.60;2.50;;;;;;;12.47;50.57;99076.28;10286003;28;20242;-38
2023/04/02 02:49:24;;;;;;;2.40;2.20;;;;;;;11.97;50.02;99030.47;10280750;28;20237;-39
2023/04/02 02:54:29;;;;;;;2.57;2.20;;;;;;;12.62;48.76;99029.53;10284287;28;20241;-38
2023/04/02 02:59:31;;;;;;;2.70;2.30;;;;;;;11.87;50.79;99067.63;10285283;28;20239;-38
2023/04/02 03:04:34;;;;;;;3.13;2.43;;;;;;;10.84;52.61;99008.16;10268134;28;20226;-38
2023/04/02 03:09:56;;;;;;;3.03;2.50;;;;;;;12.25;50.47;99081.13;10255870;28;20891;-38
2023/04/02 03:15:19;;;;;;;2.37;2.13;;;;;;;12.75;49.04;99059.00;10296738;28;20233;-38
2023/04/02 03:20:54;;;;;;;2.80;2.60;;;;;;;12.67;49.16;99086.94;10281885;28;20227;-38
2023/04/02 03:26:23;;;;;;;2.60;2.40;;;;;;;11.50;50.86;99043.94;10277149;28;20736;-39
2023/04/02 03:31:32;;;;;;;2.97;2.77;;;;;;;10.30;53.35;98959.06;10282347;28;20231;-38
2023/04/02 03:36:45;;;;;;;2.73;2.50;;;;;;;12.31;49.46;99049.94;10281039;28;20234;-38
2023/04/02 03:41:49;;;;;;;3.10;2.90;;;;;;;11.57;51.38;99065.38;10287012;28;20325;-38
2023/04/02 03:47:00;;;;;;;3.20;2.90;;;;;;;11.05;53.49;99044.63;10288966;28;20239;-38
2023/04/02 03:52:10;;;;;;;3.87;2.90;;;;;;;11.22;52.99;99069.13;10295777;28;20245;-38
2023/04/02 03:57:30;;;;;;;4.33;2.73;;;;;;;10.56;53.61;99018.16;10294161;28;20222;-38
2023/04/02 04:02:37;;;;;;;3.00;2.77;;;;;;;11.17;53.91;99087.66;10296352;28;20562;-38
2023/04/02 04:07:42;;;;;;;3.73;3.10;;;;;;;11.54;52.81;99080.03;10295442;28;20285;-38
2023/04/02 04:12:49;;;;;;;2.70;2.50;;;;;;;8.93;57.54;98923.28;10295496;28;20234;-38
2023/04/02 04:18:33;;;;;;;3.80;2.90;;;;;;;10.32;55.08;99058.63;10290783;28;20224;-38
2023/04/02 04:23:39;;;;;;;3.63;3.33;;;;;;;12.42;51.44;99124.38;10291985;28;20250;-38
2023/04/02 04:29:04;;;;;;;3.33;3.00;;;;;;;11.22;53.06;99105.78;10290328;28;20248;-38
2023/04/02 04:34:21;;;;;;;3.77;3.00;;;;;;;11.57;51.86;99124.31;10290486;28;20242;-38
2023/04/02 04:39:46;;;;;;;5.00;3.37;;;;;;;13.18;48.85;99168.41;10291405;28;20227;-38
2023/04/02 04:44:58;;;;;;;3.53;3.13;;;;;;;11.01;52.26;99063.97;10288291;28;20246;-38
2023/04/02 04:50:04;;;;;;;4.43;3.30;;;;;;;12.72;50.24;99167.63;10289169;28;20245;-39
2023/04/02 04:55:29;;;;;;;3.87;2.47;;;;;;;12.51;50.32;99182.16;10288172;28;20226;-39
2023/04/02 05:00:58;;;;;;;3.17;2.90;;;;;;;11.94;51.92;99184.53;10286905;28;20230;-38
2023/04/02 05:06:08;;;;;;;3.37;3.07;;;;;;;12.33;52.24;99203.44;10286506;28;20779;-38
2023/04/02 05:11:18;;;;;;;2.90;2.70;;;;;;;11.04;52.84;99151.91;10287360;28;20594;-39
2023/04/02 05:16:30;;;;;;;4.07;3.20;;;;;;;12.31;51.36;99192.09;10280320;28;20242;-38
2023/04/02 05:22:15;;;;;;;4.17;3.03;;;;;;;11.07;53.25;99170.25;10290154;28;20346;-39
2023/04/02 05:27:26;;;;;;;4.57;3.30;;;;;;;11.51;52.71;99195.66;10286039;28;20251;-39
2023/04/02 05:32:33;;;;;;;5.23;3.13;;;;;;;10.89;53.14;99166.28;10295923;28;20685;-38
2023/04/02 05:37:38;;;;;;;6.50;3.50;;;;;;;12.27;50.06;99158.69;10287513;28;20234;-39
2023/04/02 05:42:46;;;;;;;3.70;3.40;;;;;;;11.00;52.14;99140.78;10284755;28;20509;-38
2023/04/02 05:47:51;;;;;;;3.33;3.03;;;;;;;11.49;51.93;99186.16;10290105;28;20244;-39
2023/04/02 05:53:05;;;;;;;4.23;3.83;;;;;;;11.15;53.66;99196.81;10283489;28;20230;-39
2023/04/02 05:58:37;;;;;;;5.40;3.40;;;;;;;10.35;54.67;99136.81;10287152;28;20605;-38
2023/04/02 06:03:45;;;;;;;4.53;3.07;;;;;;;11.73;52.83;99233.84;10284964;28;20321;-38
2023/04/02 06:08:58;;;;;;;3.97;3.60;;;;;;;10.95;53.79;99218.19;10284712;28;20281;-39
2023/04/02 06:14:02;;;;;;;5.20;3.73;;;;;;;12.60;50.58;99251.72;10289046;28;20231;-39
2023/04/02 06:19:16;;;;;;;6.30;4.97;;;;;;;11.81;52.65;99279.19;10288401;28;20620;-39
2023/04/02 06:24:24;;;;;;;7.37;5.77;;;;;;;11.58;53.18;99263.47;10293613;28;20237;-39
2023/04/02 06:29:30;;;;;;;5.73;3.77;;;;;;;11.52;53.17;99255.41;10291009;28;20752;-39
2023/04/02 06:34:35;;;;;;;4.50;4.10;;;;;;;13.21;49.95;99310.38;10282412;28;20235;-39
2023/04/02 06:39:37;;;;;;;6.17;3.67;;;;;;;12.21;51.67;99277.56;10284468;28;20774;-39
2023/04/02 06:44:39;;;;;;;3.33;3.03;;;;;;;13.75;48.80;99355.81;10288099;28;20711;-39
2023/04/02 06:50:02;;;;;;;4.83;4.33;;;;;;;13.98;48.52;99377.59;10287130;28;20282;-39
2023/04/02 06:55:19;;;;;;;3.53;3.27;;;;;;;11.57;51.89;99272.53;10291612;28;20226;-39
2023/04/02 07:00:43;;;;;;;5.30;4.00;;;;;;;13.80;48.73;99382.88;10287254;28;20245;-38
2023/04/02 07:05:44;;;;;;;3.27;2.90;;;;;;;13.28;50.70;99373.00;10285492;28;20231;-38
2023/04/02 07:10:46;;;;;;;2.87;2.67;;;;;;;10.38;53.82;99211.28;10291417;28;20241;-39
2023/04/02 07:15:51;;;;;;;3.57;3.13;;;;;;;13.32;49.60;99365.34;10292048;28;20704;-39
2023/04/02 07:20:53;;;;;;;3.67;3.37;;;;;;;12.10;51.87;99354.09;10295522;28;20245;-39
2023/04/02 07:25:56;;;;;;;2.90;2.70;;;;;;;12.22;51.63;99332.88;10296835;28;20622;-38
2023/04/02 07:30:58;;;;;;;5.07;3.17;;;;;;;12.51;51.59;99374.56;10296858;28;20238;-39
2023/04/02 07:36:00;;;;;;;3.03;2.70;;;;;;;13.20;49.75;99373.19;10302065;28;20230;-39
2023/04/02 07:41:05;;;;;;;3.03;2.47;;;;;;;13.63;49.90;99425.56;10296836;28;20242;-39
2023/04/02 07:46:08;;;;;;;4.83;3.23;;;;;;;14.96;47.93;99502.00;10295794;28;20235;-39
2023/04/02 07:51:19;;;;;;;3.67;3.37;;;;;;;14.39;48.36;99462.44;10293832;28;20234;-38
2023/04/02 07:56:22;;;;;;;3.07;2.77;;;;;;;13.05;50.41;99396.81;10293889;28;20226;-39
2023/04/02 08:01:26;;;;;;;5.43;3.07;;;;;;;11.71;52.60;99321.66;10296820;28;20207;-39
2023/04/02 08:06:28;;;;;;;3.20;2.90;;;;;;;12.48;51.17;99383.84;10298238;28;20226;-39
2023/04/02 08:11:29;;;;;;;3.03;2.83;;;;;;;11.13;53.01;99323.91;10302142;28;20210;-38
2023/04/02 08:16:46;;;;;;;2.77;2.43;;;;;;;14.03;49.83;99468.41;10290457;28;20227;-38
2023/04/02 08:21:50;;;;;;;3.50;3.10;;;;;;;13.48;50.04;99442.00;10293466;28;20341;-39
2023/04/02 08:26:52;;;;;;;3.23;2.73;;;;;;;13.63;48.76;99434.47;10292525;28;20270;-38
2023/04/02 08:31:54;;;;;;;2.70;2.60;;;;;;;12.60;51.24;99458.38;10297941;28;20237;-39
2023/04/02 08:36:57;;;;;;;2.60;2.40;;;;;;;13.65;49.01;99461.97;10291740;28;20239;-40
2023/04/02 08:42:17;;;;;;;2.33;2.13;;;;;;;12.25;51.34;99423.63;10301868;28;20233;-39
2023/04/02 08:47:24;;;;;;;2.37;2.17;;;;;;;14.12;47.93;99469.03;10295761;28;20245;-39
2023/04/02 08:52:31;;;;;;;5.40;2.90;;;;;;;13.26;49.01;99444.91;10294610;28;20234;-39
2023/04/02 08:57:46;;;;;;;3.37;3.10;;;;;;;14.78;47.89;99533.22;10289767;28;20231;-39
2023/04/02 09:02:56;;;;;;;2.93;2.63;;;;;;;13.03;49.68;99463.34;10267756;28;20207;-39
2023/04/02 09:08:01;;;;;;;4.37;3.43;;;;;;;12.35;50.96;99430.25;10286374;28;20234;-39
2023/04/02 09:13:15;;;;;;;4.90;2.67;;;;;;;14.48;47.46;99537.56;9384518;28;10000300;-39
2023/04/02 09:18:18;;;;;;;5.10;3.83;;;;;;;12.84;49.60;99467.66;10235388;28;20239;-39
2023/04/02 09:23:23;;;;;;;3.47;2.70;;;;;;;14.53;47.97;99553.91;10218976;28;20249;-38
2023/04/02 09:28:25;;;;;;;4.17;3.67;;;;;;;13.37;48.18;99473.00;10231731;28;20637;-39
2023/04/02 09:33:45;;;;;;;2.40;2.30;;;;;;;13.33;47.81;99466.41;10233812;28;20256;-39
2023/04/02 09:39:05;;;;;;;2.63;2.43;;;;;;;13.86;47.57;99519.19;10234419;28;20231;-39
2023/04/02 09:44:22;;;;;;;2.37;2.17;;;;;;;14.73;46.86;99586.91;10227927;28;20322;-38
2023/04/02 09:49:27;;;;;;;2.50;2.30;;;;;;;14.17;46.67;99515.78;10233227;28;20261;-39
2023/04/02 09:54:29;;;;;;;2.43;2.33;;;;;;;13.75;47.74;99501.00;10232233;28;20254;-40
2023/04/02 09:59:30;;;;;;;2.43;2.20;;;;;;;13.61;47.13;99471.47;10234041;28;20243;-40
2023/04/02 10:04:48;;;;;;;2.23;2.00;;;;;;;14.91;46.40;99548.50;10237062;28;20231;-39
2023/04/02 10:10:16;;;;;;;2.60;2.40;;;;;;;15.34;45.76;99541.50;10234002;28;20460;-39
2023/04/02 10:15:25;;;;;;;2.30;2.10;;;;;;;15.85;44.86;99566.50;10231155;28;20323;-40
2023/04/02 10:20:28;;;;;;;2.27;2.00;;;;;;;14.99;46.15;99520.44;10233238;28;20736;-40
2023/04/02 10:25:41;;;;;;;2.40;2.20;;;;;;;14.70;46.47;99527.28;10231509;28;20739;-39
2023/04/02 10:30:58;;;;;;;2.00;1.80;;;;;;;15.86;44.74;99579.78;10271116;28;20234;-39
2023/04/02 10:36:22;;;;;;;1.60;1.50;;;;;;;17.24;43.07;99625.16;10272925;28;20249;-39
2023/04/02 10:41:35;;;;;;;1.30;1.30;;;;;;;16.44;43.02;99556.84;10265122;28;20219;-40
2023/04/02 10:46:58;;;;;;;1.70;1.60;;;;;;;15.70;43.42;99504.84;10273234;28;20233;-40
2023/04/02 10:52:20;;;;;;;1.40;1.20;;;;;;;13.85;45.84;99472.66;10265117;28;20234;-39
2023/04/02 10:57:38;;;;;;;1.40;1.40;;;;;;;15.78;43.73;99536.09;10268665;28;20694;-40
2023/04/02 11:06:42;;;;;;;1.90;1.80;;;;;;;10.25;53.00;99589.94;10442999;27;20866;-75
2023/04/02 11:11:50;;;;;;;2.40;2.20;;;;;;;10.76;52.96;99647.16;10423210;28;20243;-74
2023/04/02 11:16:54;;;;;;;2.10;1.90;;;;;;;9.19;54.95;99507.25;10378332;28;20236;-74
2023/04/02 11:22:15;;;;;;;1.50;1.50;;;;;;;9.94;53.14;99601.66;10384506;28;20234;-74
2023/04/02 11:27:16;;;;;;;2.50;1.80;;;;;;;10.60;53.14;99646.31;10377688;28;20627;-74
2023/04/02 11:32:21;;;;;;;2.70;2.50;;;;;;;9.34;53.89;99560.69;10392191;28;20232;-74
2023/04/02 11:37:34;;;;;;;2.20;2.10;;;;;;;9.60;54.29;99594.16;10389403;28;20243;-68
2023/04/02 11:42:41;;;;;;;1.93;1.83;;;;;;;10.60;53.00;99642.81;10383031;28;20235;-74
2023/04/02 11:48:12;;;;;;;2.10;1.87;;;;;;;10.79;52.26;99663.66;10390266;28;20233;-79
2023/04/02 11:53:13;;;;;;;2.53;2.37;;;;;;;10.21;54.16;99643.97;10409779;28;20602;-78
2023/04/02 11:58:44;;;;;;;2.20;2.10;;;;;;;12.38;50.73;99716.13;10390085;28;20247;-79
2023/04/02 12:04:20;;;;;;;2.40;2.20;;;;;;;10.28;53.06;99629.69;10363232;28;20238;-75
2023/04/02 12:09:26;;;;;;;2.53;2.40;;;;;;;11.17;52.84;99684.00;10389264;28;20232;-74
2023/04/02 12:14:58;;;;;;;2.13;2.03;;;;;;;12.03;50.97;99712.59;10375517;28;20244;-74
2023/04/02 12:20:19;;;;;;;2.03;1.93;;;;;;;13.41;47.60;99680.34;10357730;28;20252;-75
2023/04/02 12:25:39;;;;;;;2.13;1.93;;;;;;;11.92;49.95;99666.53;10344275;28;20230;-79
2023/04/02 12:30:40;;;;;;;1.37;1.30;;;;;;;12.33;49.06;99681.84;10364435;28;20233;-79
2023/04/02 12:35:44;;;;;;;1.60;1.50;;;;;;;13.02;47.95;99685.44;10365763;28;20264;-80
2023/04/02 12:40:56;;;;;;;1.30;1.30;;;;;;;14.30;46.28;99718.59;10368211;28;20264;-78
2023/04/02 12:46:06;;;;;;;2.30;2.20;;;;;;;11.59;53.35;99685.88;10366411;28;20241;-76
2023/04/02 12:51:09;;;;;;;2.90;2.70;;;;;;;10.76;55.04;99649.81;10362705;28;20663;-74
2023/04/02 12:56:18;;;;;;;3.00;2.80;;;;;;;10.20;56.74;99632.44;10362255;28;20284;-75
2023/04/02 13:01:22;;;;;;;3.40;3.10;;;;;;;11.16;55.90;99701.13;10367672;28;20244;-74
2023/04/02 13:06:25;;;;;;;4.33;4.03;;;;;;;10.18;57.93;99671.09;10353954;28;20612;-77
2023/04/02 13:11:39;;;;;;;4.17;3.87;;;;;;;9.40;59.54;99633.94;10367547;28;20206;-79
2023/04/02 13:16:41;;;;;;;4.13;3.83;;;;;;;11.06;57.07;99729.03;10361863;28;20244;-76
2023/04/02 13:21:45;;;;;;;4.53;4.13;;;;;;;9.95;59.04;99683.50;10354952;28;20236;-77
2023/04/02 13:26:48;;;;;;;3.90;3.57;;;;;;;10.53;58.25;99725.69;10350815;28;20245;-75
2023/04/02 13:31:52;;;;;;;4.50;4.10;;;;;;;9.88;59.02;99693.28;10354748;28;20291;-75
2023/04/02 13:36:54;;;;;;;5.10;4.70;;;;;;;10.37;57.36;99717.84;10352271;28;20233;-75
2023/04/02 13:41:57;;;;;;;5.33;4.83;;;;;;;10.57;57.06;99743.03;10352925;28;20237;-74
2023/04/02 13:46:59;;;;;;;5.90;5.27;;;;;;;9.54;58.53;99707.09;10352593;28;20236;-74
2023/04/02 13:52:03;;;;;;;5.03;4.63;;;;;;;10.06;58.28;99766.97;10355434;28;20784;-74
2023/04/02 13:57:06;;;;;;;5.10;4.70;;;;;;;9.64;58.03;99747.75;10359382;28;20236;-73
2023/04/02 14:02:14;;;;;;;5.07;4.67;;;;;;;9.70;57.56;99778.25;10353964;28;20256;-73
2023/04/02 14:07:46;;;;;;;5.03;4.53;;;;;;;9.80;57.27;99800.22;10348420;28;21046;-73
2023/04/02 14:13:07;;;;;;;4.40;4.10;;;;;;;9.67;57.38;99816.00;10353250;28;20704;-74
2023/04/02 14:18:46;;;;;;;4.50;4.20;;;;;;;10.34;55.53;99836.72;10351779;28;20232;-74
2023/04/02 14:23:48;;;;;;;3.97;3.67;;;;;;;8.89;58.00;99756.38;10346811;28;20624;-73
2023/04/02 14:28:50;;;;;;;3.57;3.37;;;;;;;10.09;56.23;99870.84;10353955;28;20236;-74
2023/04/02 14:34:18;;;;;;;3.60;3.40;;;;;;;9.26;57.49;99834.97;10351078;28;20242;-73
2023/04/02 14:39:48;;;;;;;3.57;3.33;;;;;;;9.76;57.01;99897.81;10341999;28;20229;-73
2023/04/02 14:45:01;;;;;;;4.00;3.70;;;;;;;8.92;58.27;99858.28;10341997;28;20241;-73
2023/04/02 14:50:12;;;;;;;3.40;3.20;;;;;;;8.75;58.05;99846.78;10341471;28;20724;-73
2023/04/02 14:55:25;;;;;;;3.53;3.33;;;;;;;8.10;59.30;99805.91;10340370;28;20234;-73
2023/04/02 15:00:40;;;;;;;4.50;4.10;;;;;;;9.43;58.20;99929.19;10344335;28;20557;-75
2023/04/02 15:05:53;;;;;;;4.50;4.10;;;;;;;8.84;57.60;99900.97;10339713;28;20818;-72
2023/04/02 15:10:57;;;;;;;4.90;4.57;;;;;;;8.98;58.14;99929.66;10342791;28;20242;-72
2023/04/02 15:16:07;;;;;;;4.70;4.30;;;;;;;9.19;57.05;99950.47;10341547;28;20676;-73
2023/04/02 15:21:17;;;;;;;4.73;4.33;;;;;;;9.68;56.44;99986.03;10348096;28;20225;-73
2023/04/02 15:26:31;;;;;;;4.40;4.00;;;;;;;9.49;56.06;99982.75;10339070;28;20239;-70
2023/04/02 15:31:34;;;;;;;4.17;3.87;;;;;;;7.88;59.02;99894.47;10350177;28;20246;-69
2023/04/02 15:37:02;;;;;;;4.47;4.07;;;;;;;9.02;57.72;100003.06;10343301;28;20667;-70
2023/04/02 15:42:04;;;;;;;4.90;4.50;;;;;;;7.36;59.37;99853.72;10338991;28;20232;-69
2023/04/02 15:47:27;;;;;;;4.10;3.70;;;;;;;8.92;56.56;100007.72;10351324;28;20290;-70
2023/04/02 15:52:46;;;;;;;5.00;4.60;;;;;;;7.11;59.26;99846.66;10348990;28;20234;-72
2023/04/02 15:58:22;;;;;;;5.10;4.60;;;;;;;8.10;58.59;99997.00;10355868;28;20234;-71
2023/04/02 16:03:32;;;;;;;5.63;5.13;;;;;;;7.27;59.58;99931.03;10362664;28;20254;-72
2023/04/02 16:08:55;;;;;;;6.07;5.07;;;;;;;7.15;58.81;99925.16;10356716;28;20225;-71
2023/04/02 16:14:21;;;;;;;4.63;4.23;;;;;;;7.05;60.51;99940.41;10357025;28;20229;-70
2023/04/02 16:19:37;;;;;;;5.90;5.27;;;;;;;8.46;58.42;100080.22;10354138;28;20283;-72
2023/04/02 16:24:41;;;;;;;5.30;4.80;;;;;;;8.67;57.30;100110.91;10336555;28;20895;-73
2023/04/02 16:30:27;;;;;;;5.80;5.30;;;;;;;8.00;57.73;100081.56;10328780;28;20229;-70
2023/04/02 16:35:49;;;;;;;6.43;5.23;;;;;;;8.74;57.16;100141.31;10356208;28;20240;-71
2023/04/02 16:41:13;;;;;;;6.07;5.47;;;;;;;7.33;58.47;100053.69;10353022;28;20611;-72
2023/04/02 16:46:23;;;;;;;6.60;6.00;;;;;;;8.28;56.92;100154.97;10353105;28;20236;-70
2023/04/02 16:51:59;;;;;;;6.10;5.50;;;;;;;8.08;57.68;100158.88;10353267;28;20228;-70
2023/04/02 16:57:34;;;;;;;7.03;5.97;;;;;;;8.10;57.68;100178.25;10352362;28;20228;-70
2023/04/02 17:03:01;;;;;;;6.73;6.13;;;;;;;7.13;58.55;100062.88;10354874;28;20238;-69
2023/04/02 17:08:36;;;;;;;7.90;6.63;;;;;;;9.42;54.48;100232.03;10351837;28;20295;-70
2023/04/02 17:13:53;;;;;;;5.87;5.37;;;;;;;7.72;56.66;100158.97;10352201;28;20230;-71
2023/04/02 17:18:58;;;;;;;5.97;5.37;;;;;;;7.86;56.91;100205.56;10353706;28;20240;-72
2023/04/02 17:24:13;;;;;;;6.10;5.50;;;;;;;7.60;57.75;100202.84;10353487;28;20237;-69
2023/04/02 17:29:36;;;;;;;6.27;5.60;;;;;;;7.29;57.25;100198.78;10349539;28;20747;-69
2023/04/02 17:34:38;;;;;;;6.07;5.40;;;;;;;7.73;56.25;100248.59;10322780;28;20511;-68
2023/04/02 17:39:58;;;;;;;7.47;6.77;;;;;;;6.95;57.33;100182.63;10319644;28;20202;-72
2023/04/02 17:45:09;;;;;;;7.20;6.23;;;;;;;7.13;57.68;100218.06;10334435;28;20233;-72
2023/04/02 17:50:14;;;;;;;7.53;6.77;;;;;;;7.25;56.41;100237.31;10319838;28;20234;-69
2023/04/02 17:55:39;;;;;;;7.30;6.47;;;;;;;6.60;57.37;100187.72;10358483;28;20244;-70
2023/04/02 18:00:44;;;;;;;7.87;6.90;;;;;;;6.62;57.47;100211.50;10352018;28;20314;-71
2023/04/02 18:05:58;;;;;;;7.43;6.43;;;;;;;6.69;57.02;100247.16;10352352;28;20692;-70
2023/04/02 18:11:15;;;;;;;7.53;6.83;;;;;;;6.68;56.77;100276.56;10355254;28;20238;-69
2023/04/02 18:16:24;;;;;;;8.57;6.93;;;;;;;7.33;55.30;100361.72;10353299;28;20251;-70
2023/04/02 18:21:31;;;;;;;8.90;8.03;;;;;;;6.89;56.45;100342.88;10354361;28;20705;-70
2023/04/02 18:27:10;;;;;;;7.47;6.73;;;;;;;7.49;54.55;100403.66;10350187;28;20241;-71
2023/04/02 18:32:27;;;;;;;8.77;7.90;;;;;;;6.59;56.93;100358.88;10358413;28;20228;-70
2023/04/02 18:38:13;;;;;;;9.03;8.07;;;;;;;6.69;56.67;100374.00;10353346;28;20944;-69
2023/04/02 18:43:36;;;;;;;9.67;8.67;;;;;;;6.63;57.05;100397.53;10358175;28;20257;-67
2023/04/02 18:49:00;;;;;;;10.20;9.20;;;;;;;6.65;57.33;100409.81;10339062;28;20693;-70
2023/04/02 18:54:07;;;;;;;8.33;7.47;;;;;;;7.17;55.28;100458.16;10314358;28;20229;-67
2023/04/02 18:59:18;;;;;;;10.70;9.70;;;;;;;6.22;57.33;100378.25;10325389;28;20208;-69
2023/04/02 19:04:27;;;;;;;14.17;10.67;;;;;;;8.21;54.40;100521.03;10307930;28;20238;-70
2023/04/02 19:09:39;;;;;;;10.57;9.50;;;;;;;6.57;57.33;100445.97;10346809;28;20303;-70
2023/04/02 19:14:41;;;;;;;10.67;9.67;;;;;;;5.98;58.84;100388.50;10344141;28;20230;-69
2023/04/02 19:20:09;;;;;;;10.97;9.77;;;;;;;7.84;55.58;100536.13;10350510;28;20742;-69
2023/04/02 19:25:55;;;;;;;11.37;10.27;;;;;;;7.18;56.27;100537.03;10348945;28;20241;-70
2023/04/02 19:31:35;;;;;;;10.80;9.37;;;;;;;7.38;55.40;100561.78;10357849;28;20228;-70
2023/04/02 19:36:46;;;;;;;10.70;9.60;;;;;;;7.42;54.51;100568.50;10356848;28;20662;-70
2023/04/02 19:41:59;;;;;;;11.60;9.73;;;;;;;7.94;54.37;100599.22;10352315;28;20316;-69
2023/04/02 19:47:01;;;;;;;10.63;9.50;;;;;;;7.50;54.18;100581.09;10354212;28;20230;-72
2023/04/02 19:52:03;;;;;;;10.47;8.47;;;;;;;7.98;53.79;100625.41;10359597;28;20236;-70
2023/04/02 19:57:05;;;;;;;7.53;6.83;;;;;;;6.96;53.28;100564.81;10395772;28;20342;-74
2023/04/02 20:02:09;;;;;;;5.70;5.20;;;;;;;7.12;52.30;100612.13;10393249;28;20731;-74
2023/04/02 20:07:10;;;;;;;4.97;4.57;;;;;;;6.45;50.77;100556.09;10401623;28;20232;-77
2023/04/02 20:12:12;;;;;;;4.97;4.53;;;;;;;6.75;49.58;100628.75;10391816;28;20229;-74
2023/04/02 20:17:14;;;;;;;4.17;3.77;;;;;;;7.27;49.23;100669.28;10400778;28;20275;-68
2023/04/02 20:22:17;;;;;;;5.13;4.73;;;;;;;6.28;49.74;100578.03;10368540;28;20526;-71
2023/04/02 20:27:19;;;;;;;4.10;3.70;;;;;;;6.87;48.73;100664.09;10363884;28;20225;-71
2023/04/02 20:32:21;;;;;;;4.10;3.47;;;;;;;6.60;48.36;100644.31;10367944;28;20229;-71
2023/04/02 20:37:23;;;;;;;3.90;3.60;;;;;;;7.44;46.75;100726.34;10361741;28;20235;-71
2023/04/02 20:42:25;;;;;;;3.90;3.50;;;;;;;7.88;46.42;100752.53;10361061;28;20615;-71
2023/04/02 20:47:26;;;;;;;4.53;3.60;;;;;;;7.68;46.01;100747.19;10363637;28;20303;-71
2023/04/02 20:52:31;;;;;;;4.03;3.73;;;;;;;6.76;47.17;100705.81;10356363;28;20253;-71
2023/04/02 20:57:33;;;;;;;3.83;3.53;;;;;;;6.35;47.55;100641.16;10358924;28;20591;-71
2023/04/02 21:02:35;;;;;;;4.07;3.70;;;;;;;6.44;46.75;100682.03;10366755;28;20284;-71
2023/04/02 21:07:37;;;;;;;3.50;3.20;;;;;;;6.95;46.54;100739.59;10354552;28;20253;-71
2023/04/02 21:12:38;;;;;;;4.23;3.93;;;;;;;6.49;46.18;100694.94;10365606;28;20241;-71
2023/04/02 21:17:40;;;;;;;3.50;3.20;;;;;;;5.33;46.53;100561.41;10365968;28;20240;-70
2023/04/02 21:22:42;;;;;;;3.30;3.00;;;;;;;5.85;45.50;100641.09;10369804;28;20233;-72
2023/04/02 21:27:44;;;;;;;3.10;2.90;;;;;;;5.83;44.97;100643.06;10356367;28;20234;-71
2023/04/02 21:32:45;;;;;;;3.33;2.90;;;;;;;6.07;45.03;100694.06;10363780;28;20724;-71
2023/04/02 21:37:47;;;;;;;3.27;2.97;;;;;;;6.43;45.10;100726.41;10359169;28;20280;-71
2023/04/02 21:42:49;;;;;;;4.80;3.70;;;;;;;6.66;45.19;100736.00;10365759;28;20711;-70
2023/04/02 21:47:50;;;;;;;4.40;4.00;;;;;;;6.46;44.70;100732.44;10370577;28;20240;-71
2023/04/02 21:52:52;;;;;;;3.90;3.60;;;;;;;4.39;45.71;100471.19;10356959;28;20240;-70
2023/04/02 21:57:54;;;;;;;4.23;3.90;;;;;;;6.66;44.11;100763.44;10362483;28;20240;-71
2023/04/02 22:02:55;;;;;;;4.03;3.70;;;;;;;5.53;44.86;100639.34;10362173;28;20233;-71
2023/04/02 22:07:57;;;;;;;3.67;3.47;;;;;;;5.76;43.78;100679.09;10355453;28;20234;-71
2023/04/02 22:12:59;;;;;;;3.53;3.30;;;;;;;4.88;44.16;100585.53;10366982;28;20245;-70
2023/04/02 22:18:00;;;;;;;3.73;3.40;;;;;;;7.07;43.31;100814.84;10362920;28;20237;-71
2023/04/02 22:23:02;;;;;;;3.43;3.13;;;;;;;5.30;44.85;100642.16;10363180;28;20244;-71
2023/04/02 22:28:04;;;;;;;3.90;3.50;;;;;;;6.80;42.88;100803.00;10359063;28;20244;-71
2023/04/02 22:33:06;;;;;;;3.70;3.30;;;;;;;7.24;42.11;100833.78;10368472;28;20229;-71
2023/04/02 22:38:08;;;;;;;4.83;3.90;;;;;;;6.90;42.54;100808.38;10352616;28;20249;-71
2023/04/02 22:43:09;;;;;;;3.87;3.40;;;;;;;7.05;42.87;100807.97;10364539;28;20233;-71
2023/04/02 22:48:11;;;;;;;3.70;3.40;;;;;;;6.86;42.91;100808.75;10368332;28;20236;-71
2023/04/02 22:53:14;;;;;;;4.53;4.13;;;;;;;7.40;42.40;100827.94;10358975;28;20344;-71
2023/04/02 22:58:15;;;;;;;4.37;3.90;;;;;;;6.77;43.21;100789.13;10364700;28;20225;-70
2023/04/02 23:03:17;;;;;;;3.60;3.30;;;;;;;5.67;43.92;100654.13;10369031;28;20228;-70
2023/04/02 23:08:19;;;;;;;3.50;3.20;;;;;;;7.54;42.73;100816.88;10355476;28;20228;-71
2023/04/02 23:13:21;;;;;;;3.50;3.20;;;;;;;7.58;43.65;100814.75;10361549;28;20233;-71
2023/04/02 23:18:22;;;;;;;4.23;3.80;;;;;;;7.64;43.64;100806.22;10367223;28;20236;-71
2023/04/02 23:23:26;;;;;;;3.93;3.23;;;;;;;7.07;43.92;100763.41;10360313;28;20229;-70
2023/04/02 23:28:27;;;;;;;3.87;3.57;;;;;;;9.53;41.21;100815.00;10361824;28;20232;-71
2023/04/02 23:33:29;;;;;;;3.90;3.60;;;;;;;6.06;43.39;100590.59;10367578;28;20240;-71
2023/04/02 23:38:31;;;;;;;4.30;3.90;;;;;;;6.06;41.97;100633.09;10372371;28;20225;-70
2023/04/02 23:43:33;;;;;;;4.10;3.63;;;;;;;6.87;42.27;100726.16;10361339;28;20232;-70
2023/04/02 23:48:34;;;;;;;4.67;3.40;;;;;;;5.99;41.69;100608.00;10369621;28;20747;-70
2023/04/02 23:53:36;;;;;;;3.97;3.40;;;;;;;6.89;41.76;100710.88;10346667;28;20230;-71
2023/04/02 23:58:37;;;;;;;3.67;3.33;;;;;;;7.70;41.56;100787.84;10373003;28;20283;-70
